Time;durP1;ratioP1;P1;durP2;ratioP2;P2;SDS_P1;SDS_P2;PMS_P1;PMS_P2;Temp;Humidity;BMP_temperature;BMP_pressure;BME280_temperature;BME280_humidity;BME280_pressure;Samples;Min_cycle;Max_cycle;Signal;HPM_P1;HPM_P2
2021/05/04 00:00:54;;;;;;;1.20;1.10;;;16.00;54.40;;;;;;4994075;28;20042;-64
2021/05/04 00:03:20;;;;;;;1.10;1.00;;;16.00;54.40;;;;;;4994023;28;20071;-64
2021/05/04 00:05:46;;;;;;;1.15;1.02;;;16.60;54.70;;;;;;4993976;28;20494;-64
2021/05/04 00:08:11;;;;;;;1.08;0.80;;;16.00;54.40;;;;;;4994212;28;20041;-65
2021/05/04 00:10:37;;;;;;;2.60;0.90;;;16.00;54.40;;;;;;4993939;28;20129;-64
2021/05/04 00:13:03;;;;;;;2.58;0.90;;;16.00;54.50;;;;;;4993812;28;20014;-64
2021/05/04 00:15:29;;;;;;;1.60;0.73;;;16.00;54.50;;;;;;4994074;28;20395;-64
2021/05/04 00:17:54;;;;;;;1.45;0.90;;;16.00;54.50;;;;;;4992876;28;20026;-64
2021/05/04 00:20:20;;;;;;;1.88;0.88;;;15.90;54.50;;;;;;4994052;28;20030;-64
2021/05/04 00:22:45;;;;;;;0.90;0.90;;;15.90;54.40;;;;;;4993962;28;20077;-65
2021/05/04 00:25:11;;;;;;;0.85;0.80;;;16.00;54.50;;;;;;4993940;28;20491;-64
2021/05/04 00:27:37;;;;;;;1.02;0.88;;;15.90;54.50;;;;;;4976156;28;20390;-64
2021/05/04 00:30:04;;;;;;;1.25;0.88;;;15.90;54.50;;;;;;4993600;28;20479;-64
2021/05/04 00:32:29;;;;;;;1.55;0.60;;;15.90;54.50;;;;;;4993919;28;20022;-64
2021/05/04 00:34:55;;;;;;;1.00;0.90;;;16.00;54.60;;;;;;4993538;28;20038;-64
2021/05/04 00:37:21;;;;;;;4.18;0.90;;;15.90;54.50;;;;;;4992239;28;20023;-64
2021/05/04 00:39:46;;;;;;;3.80;0.90;;;15.90;54.50;;;;;;4993443;28;20074;-64
2021/05/04 00:42:12;;;;;;;1.63;0.82;;;15.90;54.60;;;;;;4993701;28;20274;-64
2021/05/04 00:44:38;;;;;;;1.05;0.90;;;15.90;54.60;;;;;;4993433;28;20089;-64
2021/05/04 00:47:03;;;;;;;1.25;0.65;;;15.90;54.60;;;;;;4993601;28;20098;-64
2021/05/04 00:49:29;;;;;;;1.10;0.90;;;15.90;55.30;;;;;;4993288;28;20553;-64
2021/05/04 00:51:58;;;;;;;1.55;0.70;;;15.90;78.70;;;;;;4993251;28;20065;-64
2021/05/04 00:54:24;;;;;;;1.85;0.88;;;15.90;54.60;;;;;;4993508;28;20041;-64
2021/05/04 00:56:54;;;;;;;2.70;0.70;;;15.80;54.60;;;;;;4993257;28;20029;-64
2021/05/04 00:59:23;;;;;;;2.55;0.90;;;16.00;79.10;;;;;;4993235;28;20023;-65
2021/05/04 01:01:51;;;;;;;1.13;1.00;;;15.80;54.70;;;;;;4993183;28;20022;-64
2021/05/04 01:04:18;;;;;;;1.38;0.70;;;15.80;54.70;;;;;;4993009;28;20051;-64
2021/05/04 01:06:44;;;;;;;3.55;1.00;;;15.90;54.80;;;;;;4993356;28;20395;-65
2021/05/04 01:09:11;;;;;;;1.30;0.80;;;15.80;54.70;;;;;;4993110;28;20053;-64
2021/05/04 01:11:37;;;;;;;0.95;0.85;;;15.80;54.80;;;;;;4993378;28;20393;-64
2021/05/04 01:14:02;;;;;;;0.70;0.70;;;15.80;54.80;;;;;;4993154;28;20023;-64
2021/05/04 01:16:28;;;;;;;1.45;0.80;;;16.00;80.20;;;;;;4993292;28;20446;-64
2021/05/04 01:18:53;;;;;;;1.55;0.90;;;15.80;54.80;;;;;;4993142;28;20026;-64
2021/05/04 01:21:19;;;;;;;1.25;0.80;;;15.80;54.80;;;;;;4991753;28;20113;-64
2021/05/04 01:23:44;;;;;;;2.35;1.00;;;16.40;55.20;;;;;;4993222;28;20030;-64
2021/05/04 01:26:10;;;;;;;1.00;0.77;;;16.20;80.40;;;;;;4997185;28;20073;-64
2021/05/04 01:28:36;;;;;;;2.08;0.80;;;15.90;54.90;;;;;;4996907;28;20471;-64
2021/05/04 01:31:01;;;;;;;1.80;0.70;;;15.70;80.00;;;;;;4996960;28;20030;-65
2021/05/04 01:33:27;;;;;;;2.90;0.80;;;16.40;55.20;;;;;;4996867;28;20019;-65
2021/05/04 01:35:52;;;;;;;1.42;1.00;;;15.80;54.90;;;;;;4996799;28;20037;-65
2021/05/04 01:38:18;;;;;;;1.48;0.98;;;15.80;54.90;;;;;;4996857;28;20090;-64
2021/05/04 01:40:44;;;;;;;0.85;0.85;;;15.80;54.90;;;;;;4997014;28;20019;-65
2021/05/04 01:43:09;;;;;;;0.93;0.60;;;15.60;54.90;;;;;;4996675;28;20475;-65
2021/05/04 01:45:35;;;;;;;1.65;1.10;;;15.80;54.90;;;;;;4996693;28;20382;-65
2021/05/04 01:48:01;;;;;;;1.08;0.80;;;15.80;79.30;;;;;;4996881;28;20030;-65
2021/05/04 01:50:27;;;;;;;1.13;0.80;;;15.80;55.00;;;;;;4979023;28;20034;-64
2021/05/04 01:52:52;;;;;;;2.28;0.88;;;15.10;54.60;;;;;;4996707;28;20105;-65
2021/05/04 01:55:18;;;;;;;1.20;0.98;;;15.80;55.10;;;;;;4996589;28;20026;-65
2021/05/04 01:57:43;;;;;;;1.05;0.90;;;15.70;55.00;;;;;;4996794;28;20065;-64
2021/05/04 02:00:09;;;;;;;1.20;0.80;;;15.80;79.30;;;;;;4996426;28;20164;-65
2021/05/04 02:02:35;;;;;;;1.10;0.95;;;15.70;55.00;;;;;;4996308;28;20026;-64
2021/05/04 02:05:01;;;;;;;1.23;0.77;;;15.70;55.00;;;;;;4996446;28;20022;-64
2021/05/04 02:07:27;;;;;;;1.75;0.98;;;15.70;55.00;;;;;;4996340;28;20109;-64
2021/05/04 02:09:53;;;;;;;0.63;0.60;;;15.70;55.10;;;;;;4996156;28;20402;-64
2021/05/04 02:12:18;;;;;;;0.75;0.70;;;15.70;55.10;;;;;;4996253;28;20022;-65
2021/05/04 02:14:44;;;;;;;1.05;0.90;;;15.70;55.10;;;;;;4996249;28;20031;-64
2021/05/04 02:17:10;;;;;;;0.93;0.80;;;15.70;55.70;;;;;;4996214;28;20521;-64
2021/05/04 02:19:37;;;;;;;2.47;0.65;;;15.70;55.10;;;;;;4996043;28;20138;-64
2021/05/04 02:22:03;;;;;;;2.00;0.82;;;16.20;55.30;;;;;;4996049;28;20497;-64
2021/05/04 02:24:29;;;;;;;0.82;0.77;;;15.70;55.10;;;;;;4994154;28;20554;-64
2021/05/04 02:26:54;;;;;;;1.30;0.90;;;15.70;55.10;;;;;;4996158;28;20026;-64
2021/05/04 02:29:20;;;;;;;0.77;0.77;;;15.70;55.10;;;;;;4995843;28;20038;-64
2021/05/04 02:31:46;;;;;;;1.45;0.90;;;15.70;55.10;;;;;;4995747;28;20045;-64
2021/05/04 02:34:11;;;;;;;1.15;1.00;;;15.70;55.10;;;;;;4995886;28;20030;-64
2021/05/04 02:36:37;;;;;;;0.63;0.63;;;15.50;55.00;;;;;;4978100;28;20061;-64
2021/05/04 02:39:06;;;;;;;1.23;0.65;;;15.70;55.20;;;;;;4995558;28;20474;-64
2021/05/04 02:41:31;;;;;;;0.80;0.68;;;15.70;55.20;;;;;;4995506;28;20070;-63
2021/05/04 02:43:57;;;;;;;0.70;0.70;;;15.70;55.20;;;;;;4994342;28;20018;-63
2021/05/04 02:46:22;;;;;;;1.02;0.73;;;15.70;55.20;;;;;;4995640;28;20037;-63
2021/05/04 02:48:48;;;;;;;1.27;0.60;;;15.70;55.20;;;;;;4995406;28;20073;-63
2021/05/04 02:51:13;;;;;;;0.70;0.70;;;15.70;79.50;;;;;;4994338;28;20100;-63
2021/05/04 02:53:39;;;;;;;0.95;0.70;;;15.60;55.20;;;;;;4995500;28;20476;-63
2021/05/04 02:56:06;;;;;;;0.70;0.68;;;15.80;55.20;;;;;;4995413;28;20022;-63
2021/05/04 02:58:32;;;;;;;1.35;0.68;;;15.80;55.30;;;;;;4995934;28;20042;-64
2021/05/04 03:00:58;;;;;;;0.70;0.70;;;15.70;55.20;;;;;;4995403;28;20046;-63
2021/05/04 03:03:24;;;;;;;1.67;0.80;;;15.60;55.40;;;;;;4995227;28;20502;-63
2021/05/04 03:05:54;;;;;;;2.05;0.80;;;15.60;55.20;;;;;;4994886;28;20025;-63
2021/05/04 03:08:19;;;;;;;0.77;0.55;;;15.70;80.20;;;;;;4995388;28;20030;-63
2021/05/04 03:10:45;;;;;;;1.02;0.80;;;15.60;55.20;;;;;;4977593;28;20498;-63
2021/05/04 03:13:10;;;;;;;2.38;0.98;;;15.40;55.00;;;;;;4995375;28;20463;-63
2021/05/04 03:15:36;;;;;;;1.30;0.68;;;15.60;55.20;;;;;;4995093;28;20034;-63
2021/05/04 03:18:02;;;;;;;0.85;0.60;;;15.60;55.20;;;;;;4994979;28;20069;-63
2021/05/04 03:20:28;;;;;;;1.20;0.73;;;15.60;55.20;;;;;;4994738;28;20110;-63
2021/05/04 03:22:54;;;;;;;0.50;0.50;;;15.60;55.20;;;;;;4994925;28;20105;-63
2021/05/04 03:25:20;;;;;;;0.68;0.50;;;15.60;55.20;;;;;;4977413;28;20451;-63
2021/05/04 03:27:46;;;;;;;0.85;0.68;;;15.30;55.10;;;;;;4995016;28;20027;-63
2021/05/04 03:30:12;;;;;;;0.90;0.60;;;15.60;55.30;;;;;;4994254;28;20030;-63
2021/05/04 03:32:40;;;;;;;0.70;0.70;;;15.60;55.30;;;;;;4994547;28;20030;-63
2021/05/04 03:35:09;;;;;;;0.82;0.68;;;15.60;79.50;;;;;;4994633;28;20031;-63
2021/05/04 03:37:35;;;;;;;1.67;0.52;;;15.60;55.30;;;;;;4994912;28;20395;-64
2021/05/04 03:40:03;;;;;;;3.00;0.80;;;15.70;55.40;;;;;;4994835;28;20029;-63
2021/05/04 03:42:29;;;;;;;0.80;0.63;;;15.60;55.30;;;;;;4994044;28;20022;-63
2021/05/04 03:44:55;;;;;;;1.23;0.60;;;15.50;55.30;;;;;;4994537;28;20033;-64
2021/05/04 03:47:20;;;;;;;0.85;0.80;;;15.50;55.30;;;;;;4993841;28;20557;-63
2021/05/04 03:49:46;;;;;;;2.90;0.52;;;15.30;55.20;;;;;;4994393;28;20045;-63
2021/05/04 03:52:11;;;;;;;1.92;0.50;;;15.50;55.30;;;;;;4993695;28;20117;-64
2021/05/04 03:54:37;;;;;;;0.95;0.57;;;15.40;55.30;;;;;;4994541;28;20022;-63
2021/05/04 03:57:03;;;;;;;1.15;0.50;;;15.60;55.50;;;;;;4994296;28;20027;-64
2021/05/04 03:59:28;;;;;;;1.02;0.63;;;15.60;55.50;;;;;;4992956;28;20021;-64
2021/05/04 04:01:54;;;;;;;0.93;0.57;;;15.60;55.40;;;;;;4993039;28;20114;-64
2021/05/04 04:04:20;;;;;;;0.60;0.50;;;15.60;55.50;;;;;;4994056;28;20038;-63
2021/05/04 04:06:45;;;;;;;0.85;0.40;;;15.50;55.40;;;;;;4994163;28;20412;-63
2021/05/04 04:09:11;;;;;;;0.75;0.70;;;15.50;55.50;;;;;;4993921;28;20030;-63
2021/05/04 04:11:37;;;;;;;0.60;0.60;;;15.50;55.40;;;;;;4994214;28;20046;-63
2021/05/04 04:14:04;;;;;;;2.38;1.00;;;15.50;55.50;;;;;;4993948;28;20038;-64
2021/05/04 04:16:30;;;;;;;1.55;0.60;;;15.50;55.50;;;;;;4993714;28;20034;-63
2021/05/04 04:18:56;;;;;;;1.00;0.47;;;15.60;55.60;;;;;;4993786;28;20034;-63
2021/05/04 04:21:21;;;;;;;0.82;0.60;;;15.50;55.60;;;;;;4994015;28;20114;-63
2021/05/04 04:23:47;;;;;;;0.52;0.52;;;15.50;55.50;;;;;;4993680;28;20030;-63
2021/05/04 04:26:12;;;;;;;0.50;0.50;;;15.50;55.50;;;;;;4976369;28;20042;-63
2021/05/04 04:28:38;;;;;;;0.77;0.57;;;15.50;55.60;;;;;;4993652;28;20529;-63
2021/05/04 04:31:04;;;;;;;1.38;0.50;;;15.50;55.60;;;;;;4993641;28;20034;-63
2021/05/04 04:33:29;;;;;;;2.30;0.80;;;15.50;55.60;;;;;;4993670;28;20057;-63
2021/05/04 04:35:55;;;;;;;1.58;0.70;;;15.50;55.70;;;;;;4993632;28;20113;-63
2021/05/04 04:38:21;;;;;;;1.58;0.70;;;15.50;55.70;;;;;;4992347;28;20022;-63
2021/05/04 04:40:47;;;;;;;2.15;0.80;;;15.50;55.70;;;;;;4993569;28;20026;-63
2021/05/04 04:43:13;;;;;;;0.50;0.50;;;15.50;55.70;;;;;;4993510;28;20049;-63
2021/05/04 04:45:39;;;;;;;1.45;0.80;;;15.50;55.80;;;;;;4976028;28;20057;-63
2021/05/04 04:48:05;;;;;;;0.68;0.60;;;15.40;55.70;;;;;;4993321;28;20109;-63
2021/05/04 04:50:31;;;;;;;1.83;0.52;;;15.50;55.70;;;;;;4993288;28;20030;-63
2021/05/04 04:52:56;;;;;;;1.02;0.70;;;15.50;55.80;;;;;;4993544;28;20021;-63
2021/05/04 04:55:22;;;;;;;0.70;0.52;;;15.50;55.80;;;;;;4993632;28;20031;-63
2021/05/04 04:57:47;;;;;;;1.40;0.60;;;15.50;55.90;;;;;;4993347;28;20391;-63
2021/05/04 05:00:13;;;;;;;2.65;0.75;;;15.50;55.80;;;;;;4992630;28;20018;-63
2021/05/04 05:02:39;;;;;;;0.55;0.50;;;15.50;55.80;;;;;;4993215;28;20105;-62
2021/05/04 05:05:05;;;;;;;1.05;0.63;;;15.90;56.10;;;;;;4993276;28;20034;-63
2021/05/04 05:07:31;;;;;;;1.42;0.77;;;15.50;55.80;;;;;;4993162;28;20027;-63
2021/05/04 05:09:56;;;;;;;0.57;0.50;;;15.40;55.80;;;;;;4993108;28;20088;-63
2021/05/04 05:12:23;;;;;;;1.90;0.80;;;15.50;55.90;;;;;;4992209;28;20062;-63
2021/05/04 05:14:49;;;;;;;1.00;0.75;;;15.40;55.80;;;;;;4993111;28;20026;-63
2021/05/04 05:17:17;;;;;;;1.02;0.65;;;15.40;55.90;;;;;;4991871;28;20027;-63
2021/05/04 05:19:43;;;;;;;0.88;0.60;;;15.40;55.90;;;;;;4993028;28;20490;-63
2021/05/04 05:22:08;;;;;;;1.77;0.50;;;15.20;55.70;;;;;;4993115;28;20070;-63
2021/05/04 05:24:37;;;;;;;1.25;0.43;;;15.80;56.00;;;;;;4993120;28;20034;-64
2021/05/04 05:27:03;;;;;;;1.17;0.70;;;15.40;56.00;;;;;;4993299;28;20379;-64
2021/05/04 05:29:34;;;;;;;0.75;0.65;;;15.50;55.90;;;;;;4993230;28;20038;-64
2021/05/04 05:32:00;;;;;;;1.65;0.65;;;15.50;55.80;;;;;;4993134;28;20025;-64
2021/05/04 05:34:26;;;;;;;1.13;0.60;;;15.50;55.80;;;;;;4992974;28;20030;-63
2021/05/04 05:36:51;;;;;;;1.65;0.80;;;15.70;55.90;;;;;;4992923;28;20081;-63
2021/05/04 05:39:17;;;;;;;1.00;0.60;;;15.40;81.00;;;;;;4992855;28;20098;-63
2021/05/04 05:41:43;;;;;;;1.10;0.60;;;15.60;55.70;;;;;;4992912;28;20026;-63
2021/05/04 05:44:09;;;;;;;2.17;0.70;;;15.70;55.70;;;;;;4992899;28;20022;-63
2021/05/04 05:46:34;;;;;;;1.52;0.70;;;15.80;55.80;;;;;;4992962;28;20062;-63
2021/05/04 05:49:00;;;;;;;1.58;0.68;;;15.80;55.70;;;;;;4992746;28;20066;-63
2021/05/04 05:51:26;;;;;;;1.77;0.73;;;15.60;55.50;;;;;;4992791;28;20025;-63
2021/05/04 05:53:53;;;;;;;1.55;0.90;;;15.90;55.60;;;;;;4992853;28;20487;-64
2021/05/04 05:56:19;;;;;;;1.45;0.50;;;16.00;55.50;;;;;;4992749;28;20061;-64
2021/05/04 05:58:45;;;;;;;1.65;0.50;;;16.00;55.50;;;;;;4992815;28;20026;-64
2021/05/04 06:01:11;;;;;;;1.45;0.70;;;16.10;55.50;;;;;;4993079;28;20023;-64
2021/05/04 06:03:36;;;;;;;1.45;0.75;;;16.10;55.40;;;;;;4992453;28;20511;-64
2021/05/04 06:06:02;;;;;;;1.63;0.75;;;16.10;55.30;;;;;;4992928;28;20029;-64
2021/05/04 06:08:28;;;;;;;4.10;0.90;;;16.40;55.30;;;;;;4992810;28;20023;-64
2021/05/04 06:10:53;;;;;;;1.58;0.75;;;16.30;55.20;;;;;;4992974;28;20387;-64
2021/05/04 06:13:19;;;;;;;2.72;0.77;;;16.30;55.30;;;;;;4996228;28;20105;-65
2021/05/04 06:15:45;;;;;;;4.45;0.75;;;16.40;55.30;;;;;;4996443;28;20026;-64
2021/05/04 06:18:12;;;;;;;4.10;1.00;;;16.10;55.00;;;;;;4996083;28;20034;-64
2021/05/04 06:20:38;;;;;;;2.80;0.77;;;16.60;55.20;;;;;;4996300;28;20026;-64
2021/05/04 06:23:06;;;;;;;1.95;0.80;;;16.60;55.10;;;;;;4996086;28;20025;-64
2021/05/04 06:25:32;;;;;;;2.55;0.65;;;17.40;55.30;;;;;;4995828;28;20077;-62
2021/05/04 06:28:04;;;;;;;4.10;0.70;;;16.80;54.90;;;;;;4995899;28;20014;-63
2021/05/04 06:30:34;;;;;;;2.05;0.60;;;16.60;54.50;;;;;;4995880;28;20034;-63
2021/05/04 06:33:05;;;;;;;1.67;0.60;;;16.60;54.40;;;;;;4994547;28;20065;-63
2021/05/04 06:35:30;;;;;;;3.80;0.95;;;16.80;54.40;;;;;;4995661;28;20663;-62
2021/05/04 06:37:56;;;;;;;2.00;0.57;;;17.00;54.20;;;;;;4994392;28;20057;-64
2021/05/04 06:40:22;;;;;;;1.95;0.50;;;17.50;53.80;;;;;;4995536;28;20080;-63
2021/05/04 06:42:47;;;;;;;1.90;0.80;;;17.60;53.20;;;;;;4995633;28;20080;-64
2021/05/04 06:45:14;;;;;;;2.70;0.90;;;17.70;52.70;;;;;;4995733;28;20449;-64
2021/05/04 06:47:40;;;;;;;4.57;1.17;;;;;;;;;;4994351;28;20374;-64
2021/05/04 06:50:06;;;;;;;3.35;0.75;;;18.40;75.40;;;;;;4995637;28;20043;-64
2021/05/04 06:52:32;;;;;;;4.00;1.13;;;18.30;52.00;;;;;;4995786;28;20023;-64
2021/05/04 06:54:57;;;;;;;4.13;1.00;;;19.00;52.00;;;;;;4995835;28;20474;-64
2021/05/04 06:57:24;;;;;;;3.70;0.98;;;18.40;51.50;;;;;;4995351;28;20026;-63
2021/05/04 06:59:51;;;;;;;3.22;1.10;;;18.80;51.40;;;;;;4995171;28;20033;-65
2021/05/04 07:02:17;;;;;;;3.72;1.00;;;18.90;51.20;;;;;;4977683;28;20038;-65
2021/05/04 07:04:42;;;;;;;2.97;1.23;;;19.00;50.90;;;;;;4977399;28;20053;-64
2021/05/04 07:07:08;;;;;;;5.15;1.13;;;18.80;50.70;;;;;;4995171;28;20471;-63
2021/05/04 07:09:33;;;;;;;2.88;0.90;;;19.10;50.60;;;;;;4995176;28;20045;-66
2021/05/04 07:11:59;;;;;;;3.50;1.10;;;19.10;50.50;;;;;;4995026;28;20479;-64
2021/05/04 07:14:25;;;;;;;4.45;1.25;;;19.20;50.60;;;;;;4995147;28;20031;-65
2021/05/04 07:16:51;;;;;;;4.63;1.10;;;19.30;50.50;;;;;;4995355;28;20390;-64
2021/05/04 07:19:17;;;;;;;6.82;1.05;;;19.40;50.40;;;;;;4995153;28;20105;-65
2021/05/04 07:21:43;;;;;;;4.20;0.88;;;19.10;50.20;;;;;;4994481;28;20500;-65
2021/05/04 07:24:09;;;;;;;2.22;1.08;;;19.20;50.60;;;;;;4994950;28;20130;-65
2021/05/04 07:26:35;;;;;;;2.90;1.05;;;19.40;50.70;;;;;;4994960;28;20062;-63
2021/05/04 07:29:01;;;;;;;4.68;1.42;;;19.20;50.30;;;;;;4994863;28;20480;-66
2021/05/04 07:31:29;;;;;;;4.35;1.05;;;19.50;50.50;;;;;;4995111;28;20105;-65
2021/05/04 07:33:55;;;;;;;3.60;1.02;;;19.50;50.80;;;;;;4994905;28;20061;-66
2021/05/04 07:36:20;;;;;;;2.28;0.98;;;19.30;50.60;;;;;;4993527;28;20066;-66
2021/05/04 07:38:46;;;;;;;3.55;1.27;;;19.80;50.70;;;;;;4994702;28;20023;-66
2021/05/04 07:41:12;;;;;;;2.33;1.00;;;19.70;50.60;;;;;;4994663;28;20023;-66
2021/05/04 07:43:38;;;;;;;6.25;1.15;;;19.50;50.80;;;;;;4994616;28;20563;-64
2021/05/04 07:46:03;;;;;;;2.55;1.00;;;19.40;50.70;;;;;;4994436;28;20387;-66
2021/05/04 07:48:29;;;;;;;3.28;0.93;;;19.70;50.70;;;;;;4992938;28;20022;-65
2021/05/04 07:50:55;;;;;;;3.30;1.13;;;19.70;50.70;;;;;;4976707;28;20120;-62
2021/05/04 07:53:21;;;;;;;2.97;0.95;;;19.40;50.80;;;;;;4994499;28;20026;-64
2021/05/04 07:55:47;;;;;;;3.83;1.30;;;19.60;51.10;;;;;;4994181;28;20049;-63
2021/05/04 07:58:12;;;;;;;2.63;1.10;;;19.60;51.10;;;;;;4994458;28;20026;-63
2021/05/04 08:00:38;;;;;;;5.10;1.50;;;19.50;51.20;;;;;;4994432;28;20029;-64
2021/05/04 08:03:04;;;;;;;2.67;1.20;;;19.50;51.40;;;;;;4993846;28;20053;-65
2021/05/04 08:05:29;;;;;;;3.00;1.20;;;19.40;51.60;;;;;;4994040;28;20098;-64
2021/05/04 08:07:55;;;;;;;4.25;1.33;;;19.40;51.60;;;;;;4994042;28;20054;-64
2021/05/04 08:10:20;;;;;;;4.50;1.30;;;19.20;51.50;;;;;;4994098;28;20038;-63
2021/05/04 08:12:46;;;;;;;3.35;1.15;;;19.50;51.70;;;;;;4993933;28;20030;-63
2021/05/04 08:15:17;;;;;;;3.95;1.27;;;19.30;51.70;;;;;;4993940;28;20539;-63
2021/05/04 08:17:47;;;;;;;5.63;1.30;;;19.40;51.70;;;;;;4992478;28;20022;-65
2021/05/04 08:20:13;;;;;;;5.97;1.00;;;19.20;51.60;;;;;;4994014;28;20026;-64
2021/05/04 08:22:39;;;;;;;4.80;1.25;;;19.30;51.70;;;;;;4993791;28;20535;-63
2021/05/04 08:25:05;;;;;;;5.07;1.60;;;19.00;51.60;;;;;;4993568;28;20030;-65
2021/05/04 08:27:31;;;;;;;2.92;1.10;;;19.30;51.90;;;;;;4976263;28;20022;-64
2021/05/04 08:29:56;;;;;;;6.70;1.10;;;19.20;51.60;;;;;;4993860;28;20096;-64
2021/05/04 08:32:22;;;;;;;3.88;1.10;;;19.10;51.40;;;;;;4993623;28;20023;-63
2021/05/04 08:34:48;;;;;;;4.50;1.52;;;19.40;51.60;;;;;;4993398;28;20037;-62
2021/05/04 08:37:13;;;;;;;4.80;1.50;;;19.50;73.50;;;;;;4993536;28;20021;-63
2021/05/04 08:39:39;;;;;;;6.13;1.83;;;19.10;51.00;;;;;;4993548;28;20112;-61
2021/05/04 08:42:05;;;;;;;6.15;1.38;;;19.40;50.90;;;;;;4993475;28;20368;-65
2021/05/04 08:44:32;;;;;;;4.53;1.20;;;19.30;50.80;;;;;;4993428;28;20031;-65
2021/05/04 08:47:00;;;;;;;5.35;1.65;;;19.50;51.30;;;;;;4993411;28;20026;-65
2021/05/04 08:49:26;;;;;;;3.47;1.40;;;19.20;74.80;;;;;;4993236;28;20046;-64
2021/05/04 08:51:52;;;;;;;7.57;1.85;;;19.20;52.10;;;;;;4993593;28;20077;-66
2021/05/04 08:54:18;;;;;;;5.97;1.13;;;19.10;52.40;;;;;;4993377;28;20038;-64
2021/05/04 08:56:44;;;;;;;5.30;1.50;;;19.20;53.50;;;;;;4993332;28;20102;-63
2021/05/04 08:59:11;;;;;;;4.10;1.38;;;18.80;53.00;;;;;;4993288;28;20034;-63
2021/05/04 09:01:37;;;;;;;4.45;1.40;;;19.00;53.20;;;;;;4993267;28;20026;-63
2021/05/04 09:04:09;;;;;;;4.57;1.40;;;19.10;53.20;;;;;;4993109;28;20058;-62
2021/05/04 09:06:40;;;;;;;4.90;1.75;;;19.10;53.30;;;;;;4993194;28;20023;-62
2021/05/04 09:09:14;;;;;;;5.38;1.52;;;18.70;53.00;;;;;;4975528;28;20035;-63
2021/05/04 09:19:22;;;;;;;6.20;1.70;;;18.70;52.80;;;;;;4993061;28;20458;-64
2021/05/04 09:21:48;;;;;;;4.45;1.80;;;18.80;53.00;;;;;;4993139;28;20054;-64
2021/05/04 09:24:17;;;;;;;7.03;1.52;;;18.70;52.90;;;;;;4993091;28;20069;-63
2021/05/04 09:26:44;;;;;;;4.05;1.17;;;19.00;52.80;;;;;;4992982;28;20022;-64
2021/05/04 09:29:10;;;;;;;4.47;1.52;;;19.00;52.60;;;;;;4992842;28;20030;-63
2021/05/04 09:31:41;;;;;;;4.40;1.65;;;18.80;52.50;;;;;;4993199;28;20042;-63
2021/05/04 09:34:12;;;;;;;6.60;1.80;;;18.90;52.70;;;;;;4993043;28;20422;-63
2021/05/04 09:36:43;;;;;;;7.10;2.08;;;18.90;52.40;;;;;;4992825;28;20022;-62
2021/05/04 09:39:12;;;;;;;6.40;1.58;;;18.70;52.40;;;;;;4992906;28;20027;-64
2021/05/04 09:41:38;;;;;;;4.60;1.27;;;18.70;52.20;;;;;;4993104;28;20109;-64
2021/05/04 09:44:04;;;;;;;3.75;1.35;;;19.00;52.00;;;;;;4992820;28;20033;-63
2021/05/04 09:46:48;;;;;;;3.92;1.23;;;19.00;51.80;;;;;;4995400;28;20018;-64
2021/05/04 09:49:29;;;;;;;4.93;1.60;;;19.20;74.70;;;;;;4979026;28;20065;-62
2021/05/04 09:52:30;;;;;;;4.40;1.20;;;19.10;51.40;;;;;;4996761;28;20018;-63
2021/05/04 09:55:13;;;;;;;4.32;1.10;;;19.10;51.30;;;;;;4996624;28;20031;-63
2021/05/04 09:57:49;;;;;;;2.47;1.00;;;19.10;51.20;;;;;;4996427;28;20061;-63
2021/05/04 10:00:26;;;;;;;3.53;1.15;;;19.20;50.90;;;;;;4996418;28;20026;-62
2021/05/04 10:02:52;;;;;;;4.35;1.02;;;19.50;50.90;;;;;;4996234;28;20018;-63
2021/05/04 10:05:19;;;;;;;3.15;0.82;;;18.90;50.60;;;;;;4996367;28;20022;-63
2021/05/04 10:07:47;;;;;;;4.53;1.30;;;19.30;50.50;;;;;;4996267;28;20038;-63
2021/05/04 10:10:15;;;;;;;2.83;1.02;;;19.40;50.30;;;;;;4996112;28;20034;-62
2021/05/04 10:12:43;;;;;;;3.47;1.08;;;19.40;50.40;;;;;;4996444;28;20023;-63
2021/05/04 10:15:11;;;;;;;7.20;1.30;;;19.40;50.30;;;;;;4996088;28;20054;-63
2021/05/04 10:17:38;;;;;;;3.13;1.08;;;19.40;50.10;;;;;;4996113;28;20018;-64
2021/05/04 10:20:19;;;;;;;3.03;1.15;;;19.40;50.20;;;;;;4996323;28;20060;-64
2021/05/04 10:22:46;;;;;;;3.40;0.95;;;19.30;50.20;;;;;;4996296;28;20383;-64
2021/05/04 10:25:15;;;;;;;3.15;1.20;;;19.20;50.10;;;;;;4995915;28;20026;-64
2021/05/04 10:27:43;;;;;;;2.33;0.77;;;19.10;50.10;;;;;;4995923;28;20462;-63
2021/05/04 10:30:10;;;;;;;3.33;1.25;;;19.40;50.30;;;;;;4995877;28;20391;-63
2021/05/04 10:32:59;;;;;;;3.83;1.20;;;19.10;50.20;;;;;;4994889;28;20098;-62
2021/05/04 10:35:31;;;;;;;2.03;1.02;;;19.30;50.30;;;;;;4996128;28;20061;-63
2021/05/04 10:38:05;;;;;;;2.00;0.70;;;18.90;50.10;;;;;;4995782;28;20033;-63
2021/05/04 10:40:34;;;;;;;1.85;0.80;;;19.00;50.00;;;;;;4995852;28;20030;-63
2021/05/04 10:43:23;;;;;;;3.42;1.20;;;18.80;49.90;;;;;;4995854;28;20390;-63
2021/05/04 10:45:51;;;;;;;2.00;0.85;;;19.00;49.80;;;;;;4995305;28;20025;-63
2021/05/04 10:48:17;;;;;;;1.75;0.77;;;18.90;49.50;;;;;;4995525;28;20026;-61
2021/05/04 10:50:53;;;;;;;5.78;1.10;;;19.10;49.60;;;;;;4995576;28;20475;-62
2021/05/04 10:53:21;;;;;;;2.85;0.93;;;19.10;49.70;;;;;;4994292;28;20033;-63
2021/05/04 10:55:53;;;;;;;3.15;0.70;;;19.00;49.50;;;;;;4977942;28;20053;-63
2021/05/04 10:58:20;;;;;;;4.95;0.90;;;19.10;49.40;;;;;;4995469;28;20174;-64
2021/05/04 11:00:48;;;;;;;4.43;0.80;;;19.50;49.60;;;;;;4995499;28;20104;-64
2021/05/04 11:03:32;;;;;;;2.45;1.00;;;19.10;49.40;;;;;;4995122;28;20073;-64
2021/05/04 11:05:57;;;;;;;2.15;0.70;;;19.10;72.10;;;;;;4977743;28;20038;-64
2021/05/04 11:08:23;;;;;;;3.20;0.73;;;19.00;49.30;;;;;;4995361;28;20026;-62
2021/05/04 11:11:29;;;;;;;3.60;0.98;;;18.80;49.20;;;;;;4995177;28;20061;-63
2021/05/04 11:14:21;;;;;;;5.28;0.70;;;19.10;49.20;;;;;;4995357;28;20027;-63
2021/05/04 11:17:01;;;;;;;1.48;0.70;;;19.10;49.30;;;;;;4995329;28;20034;-64
2021/05/04 11:19:33;;;;;;;0.82;0.50;;;19.10;49.20;;;;;;4995305;28;20018;-63
2021/05/04 11:21:59;;;;;;;1.75;0.52;;;19.40;49.40;;;;;;4994884;28;20060;-64
2021/05/04 11:24:36;;;;;;;3.72;0.55;;;19.10;49.20;;;;;;4995134;28;20026;-64
2021/05/04 11:27:21;;;;;;;2.13;0.80;;;19.50;49.30;;;;;;4994920;28;20480;-64
2021/05/04 11:29:50;;;;;;;1.38;0.70;;;19.10;49.00;;;;;;4977268;28;20125;-63
2021/05/04 11:32:36;;;;;;;3.85;0.80;;;18.90;49.10;;;;;;4995086;28;20386;-63
2021/05/04 11:35:06;;;;;;;1.30;0.60;;;19.10;49.20;;;;;;4994782;28;20057;-64
2021/05/04 11:37:39;;;;;;;1.83;0.60;;;19.10;71.80;;;;;;4994704;28;20476;-63
2021/05/04 11:40:19;;;;;;;3.28;0.77;;;19.00;49.00;;;;;;4977240;28;20026;-66
2021/05/04 11:42:51;;;;;;;3.92;0.70;;;19.10;49.40;;;;;;4994526;28;20510;-64
2021/05/04 11:45:31;;;;;;;6.75;0.90;;;18.80;48.60;;;;;;4994581;28;20691;-64
2021/05/04 11:48:04;;;;;;;0.90;0.50;;;19.00;48.60;;;;;;4994577;28;20057;-65
2021/05/04 11:50:31;;;;;;;1.63;0.50;;;19.00;48.70;;;;;;4994316;28;20050;-64
2021/05/04 11:53:12;;;;;;;2.22;0.30;;;19.00;49.10;;;;;;4994257;28;20049;-66
2021/05/04 11:55:42;;;;;;;2.95;0.45;;;19.00;48.70;;;;;;4993502;28;20027;-66
2021/05/04 11:58:13;;;;;;;2.17;0.50;;;19.00;48.70;;;;;;4994274;28;20105;-64
2021/05/04 12:00:39;;;;;;;1.08;0.50;;;19.00;48.80;;;;;;4994227;28;20551;-65
2021/05/04 12:03:06;;;;;;;1.52;0.90;;;19.50;49.10;;;;;;4994178;28;20072;-65
2021/05/04 12:05:32;;;;;;;1.58;0.50;;;19.00;48.80;;;;;;4994161;28;20495;-64
2021/05/04 12:07:59;;;;;;;1.85;0.47;;;19.00;48.80;;;;;;4993604;28;20114;-65
2021/05/04 12:10:34;;;;;;;1.92;0.43;;;19.00;48.80;;;;;;4994007;28;20038;-65
2021/05/04 12:13:10;;;;;;;3.92;0.60;;;19.00;48.80;;;;;;4994009;28;20598;-65
2021/05/04 12:15:40;;;;;;;2.05;0.65;;;19.00;48.70;;;;;;4993956;28;20025;-65
2021/05/04 12:18:08;;;;;;;3.75;0.77;;;19.00;48.80;;;;;;4993760;28;20026;-65
2021/05/04 12:20:38;;;;;;;2.00;0.70;;;19.00;48.80;;;;;;4993865;28;20023;-64
2021/05/04 12:23:06;;;;;;;2.50;0.50;;;18.70;48.90;;;;;;4976568;28;20390;-66
2021/05/04 12:25:43;;;;;;;2.78;0.80;;;18.90;48.70;;;;;;4993832;28;20041;-66
2021/05/04 12:28:13;;;;;;;2.60;0.70;;;19.10;48.90;;;;;;4993806;28;20054;-65
2021/05/04 12:30:39;;;;;;;2.88;0.52;;;19.40;49.00;;;;;;4993926;28;20081;-65
2021/05/04 12:33:05;;;;;;;1.73;0.32;;;19.00;48.90;;;;;;4993778;28;20018;-65
2021/05/04 12:35:32;;;;;;;1.20;0.40;;;19.00;48.70;;;;;;4993668;28;20541;-66
2021/05/04 12:38:10;;;;;;;0.95;0.30;;;18.70;48.60;;;;;;4993628;28;20030;-65
2021/05/04 12:40:40;;;;;;;1.95;0.70;;;19.00;49.30;;;;;;4992444;28;20052;-66
2021/05/04 12:43:18;;;;;;;1.70;0.68;;;19.50;49.10;;;;;;4993835;28;20073;-64
2021/05/04 12:46:04;;;;;;;2.63;0.65;;;19.00;48.70;;;;;;4993780;28;20416;-62
2021/05/04 12:48:30;;;;;;;1.90;0.20;;;19.10;49.40;;;;;;4993287;28;20471;-64
2021/05/04 12:51:05;;;;;;;2.40;0.63;;;19.10;72.00;;;;;;4993281;28;20041;-66
2021/05/04 12:53:34;;;;;;;2.17;0.70;;;19.00;48.50;;;;;;4993425;28;20027;-67
2021/05/04 12:56:02;;;;;;;2.60;0.88;;;19.10;71.80;;;;;;4993404;28;20097;-66
2021/05/04 12:58:28;;;;;;;1.10;0.40;;;18.90;48.50;;;;;;4993362;28;20022;-65